sensor_id;sensor_type;location;lat;lon;timestamp;pressure;altitude;pressure_sealevel;temperature;humidity
57668;BME280;43499;52.366;12.912;2023-01-28T00:00:35;102405.16;;;-0.41;96.15
57668;BME280;43499;52.366;12.912;2023-01-28T00:01:36;102379.34;;;-0.53;95.80
57668;BME280;43499;52.366;12.912;2023-01-28T00:02:37;102398.59;;;-0.39;95.95
57668;BME280;43499;52.366;12.912;2023-01-28T00:03:38;102382.13;;;-0.45;95.69
57668;BME280;43499;52.366;12.912;2023-01-28T00:04:43;102405.63;;;-0.38;95.60
57668;BME280;43499;52.366;12.912;2023-01-28T00:05:44;102371.59;;;-0.53;95.35
57668;BME280;43499;52.366;12.912;2023-01-28T00:06:55;102398.09;;;-0.37;95.47
57668;BME280;43499;52.366;12.912;2023-01-28T00:08:05;102392.94;;;-0.42;94.89
57668;BME280;43499;52.366;12.912;2023-01-28T00:09:06;102422.31;;;-0.36;95.30
57668;BME280;43499;52.366;12.912;2023-01-28T00:10:18;102365.50;;;-0.59;95.59
57668;BME280;43499;52.366;12.912;2023-01-28T00:11:19;102388.06;;;-0.52;94.39
57668;BME280;43499;52.366;12.912;2023-01-28T00:12:36;102338.53;;;-0.78;94.59
57668;BME280;43499;52.366;12.912;2023-01-28T00:13:37;102396.25;;;-0.49;94.75
57668;BME280;43499;52.366;12.912;2023-01-28T00:14:38;102402.81;;;-0.45;94.97
57668;BME280;43499;52.366;12.912;2023-01-28T00:15:39;102404.94;;;-0.43;94.99
57668;BME280;43499;52.366;12.912;2023-01-28T00:16:40;102383.59;;;-0.59;94.72
57668;BME280;43499;52.366;12.912;2023-01-28T00:17:41;102395.31;;;-0.55;94.28
57668;BME280;43499;52.366;12.912;2023-01-28T00:18:43;102392.47;;;-0.57;94.27
57668;BME280;43499;52.366;12.912;2023-01-28T00:19:44;102410.56;;;-0.45;94.71
57668;BME280;43499;52.366;12.912;2023-01-28T00:21:08;102417.16;;;-0.42;94.72
57668;BME280;43499;52.366;12.912;2023-01-28T00:22:09;102390.84;;;-0.56;94.63
57668;BME280;43499;52.366;12.912;2023-01-28T00:23:10;102419.47;;;-0.43;94.17
57668;BME280;43499;52.366;12.912;2023-01-28T00:24:11;102414.78;;;-0.40;94.20
57668;BME280;43499;52.366;12.912;2023-01-28T00:25:12;102401.19;;;-0.51;94.34
57668;BME280;43499;52.366;12.912;2023-01-28T00:26:14;102409.41;;;-0.48;94.38
57668;BME280;43499;52.366;12.912;2023-01-28T00:27:17;102410.81;;;-0.50;94.07
57668;BME280;43499;52.366;12.912;2023-01-28T00:28:18;102408.94;;;-0.51;94.72
57668;BME280;43499;52.366;12.912;2023-01-28T00:29:19;102411.03;;;-0.54;95.00
57668;BME280;43499;52.366;12.912;2023-01-28T00:30:23;102417.59;;;-0.56;94.96
57668;BME280;43499;52.366;12.912;2023-01-28T00:31:25;102368.81;;;-0.83;95.07
57668;BME280;43499;52.366;12.912;2023-01-28T00:32:27;102385.00;;;-0.72;94.35
57668;BME280;43499;52.366;12.912;2023-01-28T00:33:28;102431.69;;;-0.48;93.58
57668;BME280;43499;52.366;12.912;2023-01-28T00:34:29;102404.97;;;-0.66;93.53
57668;BME280;43499;52.366;12.912;2023-01-28T00:35:30;102418.78;;;-0.59;93.80
57668;BME280;43499;52.366;12.912;2023-01-28T00:36:31;102396.25;;;-0.66;94.51
57668;BME280;43499;52.366;12.912;2023-01-28T00:37:33;102426.06;;;-0.57;94.83
57668;BME280;43499;52.366;12.912;2023-01-28T00:38:36;102413.63;;;-0.65;94.76
57668;BME280;43499;52.366;12.912;2023-01-28T00:39:37;102411.53;;;-0.68;94.02
57668;BME280;43499;52.366;12.912;2023-01-28T00:40:38;102421.84;;;-0.62;93.86
57668;BME280;43499;52.366;12.912;2023-01-28T00:41:39;102419.06;;;-0.64;93.55
57668;BME280;43499;52.366;12.912;2023-01-28T00:42:40;102416.00;;;-0.67;93.92
57668;BME280;43499;52.366;12.912;2023-01-28T00:43:42;102415.72;;;-0.63;93.67
57668;BME280;43499;52.366;12.912;2023-01-28T00:44:44;102414.59;;;-0.70;93.64
57668;BME280;43499;52.366;12.912;2023-01-28T00:45:45;102388.06;;;-0.81;93.70
57668;BME280;43499;52.366;12.912;2023-01-28T00:46:46;102418.09;;;-0.64;94.01
57668;BME280;43499;52.366;12.912;2023-01-28T00:47:47;102418.78;;;-0.65;93.95
57668;BME280;43499;52.366;12.912;2023-01-28T00:48:48;102424.22;;;-0.69;93.94
57668;BME280;43499;52.366;12.912;2023-01-28T00:49:49;102422.09;;;-0.72;93.83
57668;BME280;43499;52.366;12.912;2023-01-28T00:50:51;102423.47;;;-0.68;93.97
57668;BME280;43499;52.366;12.912;2023-01-28T00:51:52;102416.69;;;-0.73;94.60
57668;BME280;43499;52.366;12.912;2023-01-28T00:52:53;102407.53;;;-0.77;94.11
57668;BME280;43499;52.366;12.912;2023-01-28T00:53:54;102429.38;;;-0.69;94.17
57668;BME280;43499;52.366;12.912;2023-01-28T00:54:55;102413.41;;;-0.78;94.53
57668;BME280;43499;52.366;12.912;2023-01-28T00:55:57;102421.38;;;-0.71;94.73
57668;BME280;43499;52.366;12.912;2023-01-28T00:56:58;102426.53;;;-0.71;94.83
57668;BME280;43499;52.366;12.912;2023-01-28T00:57:59;102401.44;;;-0.83;94.67
57668;BME280;43499;52.366;12.912;2023-01-28T00:59:00;102423.03;;;-0.71;94.33
57668;BME280;43499;52.366;12.912;2023-01-28T01:00:01;102419.06;;;-0.75;93.68
57668;BME280;43499;52.366;12.912;2023-01-28T01:01:14;102425.84;;;-0.70;93.50
57668;BME280;43499;52.366;12.912;2023-01-28T01:02:16;102428.19;;;-0.77;93.51
57668;BME280;43499;52.366;12.912;2023-01-28T01:03:19;102432.41;;;-0.72;93.08
57668;BME280;43499;52.366;12.912;2023-01-28T01:04:20;102437.56;;;-0.72;94.03
57668;BME280;43499;52.366;12.912;2023-01-28T01:05:27;102434.28;;;-0.82;93.94
57668;BME280;43499;52.366;12.912;2023-01-28T01:06:34;102423.03;;;-0.88;93.26
57668;BME280;43499;52.366;12.912;2023-01-28T01:07:35;102447.91;;;-0.78;93.38
57668;BME280;43499;52.366;12.912;2023-01-28T01:08:43;102374.91;;;-1.22;93.50
57668;BME280;43499;52.366;12.912;2023-01-28T01:09:51;102431.97;;;-0.86;94.07
57668;BME280;43499;52.366;12.912;2023-01-28T01:10:57;102415.28;;;-0.94;93.80
57668;BME280;43499;52.366;12.912;2023-01-28T01:11:58;102442.75;;;-0.78;93.89
57668;BME280;43499;52.366;12.912;2023-01-28T01:13:00;102444.88;;;-0.81;93.17
57668;BME280;43499;52.366;12.912;2023-01-28T01:14:01;102426.81;;;-0.81;93.31
57668;BME280;43499;52.366;12.912;2023-01-28T01:15:04;102415.50;;;-0.93;92.96
57668;BME280;43499;52.366;12.912;2023-01-28T01:16:11;102422.06;;;-0.95;92.60
57668;BME280;43499;52.366;12.912;2023-01-28T01:17:12;102434.28;;;-0.82;92.77
57668;BME280;43499;52.366;12.912;2023-01-28T01:18:13;102421.38;;;-0.88;93.20
57668;BME280;43499;52.366;12.912;2023-01-28T01:19:14;102433.59;;;-0.81;92.99
57668;BME280;43499;52.366;12.912;2023-01-28T01:20:22;102431.72;;;-0.82;93.29
57668;BME280;43499;52.366;12.912;2023-01-28T01:21:26;102432.19;;;-0.79;93.49
57668;BME280;43499;52.366;12.912;2023-01-28T01:22:28;102433.59;;;-0.81;93.59
57668;BME280;43499;52.366;12.912;2023-01-28T01:23:30;102415.03;;;-0.90;93.40
57668;BME280;43499;52.366;12.912;2023-01-28T01:24:32;102412.44;;;-0.96;93.17
57668;BME280;43499;52.366;12.912;2023-01-28T01:25:34;102405.41;;;-1.02;93.72
57668;BME280;43499;52.366;12.912;2023-01-28T01:26:37;102420.19;;;-1.01;93.81
57668;BME280;43499;52.366;12.912;2023-01-28T01:27:48;102404.47;;;-1.09;94.21
57668;BME280;43499;52.366;12.912;2023-01-28T01:28:57;102368.09;;;-1.27;94.47
57668;BME280;43499;52.366;12.912;2023-01-28T01:30:01;102355.63;;;-1.35;94.13
57668;BME280;43499;52.366;12.912;2023-01-28T01:31:18;102416.91;;;-1.00;93.73
57668;BME280;43499;52.366;12.912;2023-01-28T01:32:32;102384.28;;;-1.28;93.50
57668;BME280;43499;52.366;12.912;2023-01-28T01:33:37;102370.66;;;-1.38;93.75
57668;BME280;43499;52.366;12.912;2023-01-28T01:34:47;102411.25;;;-1.15;93.59
57668;BME280;43499;52.366;12.912;2023-01-28T01:36:08;102354.22;;;-1.39;93.45
57668;BME280;43499;52.366;12.912;2023-01-28T01:37:30;102431.69;;;-0.99;93.82
57668;BME280;43499;52.366;12.912;2023-01-28T01:38:42;102382.13;;;-1.31;94.41
57668;BME280;43499;52.366;12.912;2023-01-28T01:39:55;102378.41;;;-1.38;94.26
57668;BME280;43499;52.366;12.912;2023-01-28T01:41:19;102450.25;;;-0.96;93.69
57668;BME280;43499;52.366;12.912;2023-01-28T01:42:33;102441.81;;;-0.95;94.14
57668;BME280;43499;52.366;12.912;2023-01-28T01:44:00;102405.88;;;-1.16;93.61
57668;BME280;43499;52.366;12.912;2023-01-28T01:45:12;102440.59;;;-1.03;93.77
57668;BME280;43499;52.366;12.912;2023-01-28T01:47:56;102423.03;;;-1.05;93.92
57668;BME280;43499;52.366;12.912;2023-01-28T01:49:20;102361.97;;;-1.45;93.48
57668;BME280;43499;52.366;12.912;2023-01-28T01:50:31;102415.72;;;-1.14;93.60
57668;BME280;43499;52.366;12.912;2023-01-28T01:51:40;102456.09;;;-0.97;93.62
57668;BME280;43499;52.366;12.912;2023-01-28T01:52:43;102364.53;;;-1.45;93.83
57668;BME280;43499;52.366;12.912;2023-01-28T01:54:01;102389.19;;;-1.30;94.13
57668;BME280;43499;52.366;12.912;2023-01-28T01:55:11;102389.16;;;-1.35;93.76
57668;BME280;43499;52.366;12.912;2023-01-28T01:56:16;102365.50;;;-1.44;93.77
57668;BME280;43499;52.366;12.912;2023-01-28T01:57:34;102374.88;;;-1.39;94.39
57668;BME280;43499;52.366;12.912;2023-01-28T01:58:38;102413.81;;;-1.15;94.23
57668;BME280;43499;52.366;12.912;2023-01-28T01:59:45;102437.06;;;-1.09;93.33
57668;BME280;43499;52.366;12.912;2023-01-28T02:00:47;102450.94;;;-0.97;93.30
57668;BME280;43499;52.366;12.912;2023-01-28T02:01:57;102454.91;;;-1.05;92.66
57668;BME280;43499;52.366;12.912;2023-01-28T02:03:15;102457.28;;;-1.06;92.75
57668;BME280;43499;52.366;12.912;2023-01-28T02:04:31;102455.63;;;-1.06;93.10
57668;BME280;43499;52.366;12.912;2023-01-28T02:05:40;102464.53;;;-1.10;92.38
57668;BME280;43499;52.366;12.912;2023-01-28T02:07:04;102467.09;;;-1.10;93.71
57668;BME280;43499;52.366;12.912;2023-01-28T02:08:08;102427.91;;;-1.24;92.83
57668;BME280;43499;52.366;12.912;2023-01-28T02:09:26;102452.09;;;-1.18;92.80
57668;BME280;43499;52.366;12.912;2023-01-28T02:10:32;102415.22;;;-1.40;93.17
57668;BME280;43499;52.366;12.912;2023-01-28T02:11:33;102425.28;;;-1.35;93.09
57668;BME280;43499;52.366;12.912;2023-01-28T02:12:45;102424.38;;;-1.30;93.40
57668;BME280;43499;52.366;12.912;2023-01-28T02:13:52;102419.22;;;-1.30;93.56
57668;BME280;43499;52.366;12.912;2023-01-28T02:15:09;102391.72;;;-1.52;93.24
57668;BME280;43499;52.366;12.912;2023-01-28T02:16:30;102422.03;;;-1.29;93.21
57668;BME280;43499;52.366;12.912;2023-01-28T02:17:36;102383.28;;;-1.46;93.14
57668;BME280;43499;52.366;12.912;2023-01-28T02:18:44;102401.38;;;-1.34;92.96
57668;BME280;43499;52.366;12.912;2023-01-28T02:19:51;102380.97;;;-1.44;93.27
57668;BME280;43499;52.366;12.912;2023-01-28T02:22:50;102455.38;;;-1.13;92.66
57668;BME280;43499;52.366;12.912;2023-01-28T02:24:33;102443.41;;;-1.13;93.12
57668;BME280;43499;52.366;12.912;2023-01-28T02:27:23;102445.06;;;-1.02;92.81
57668;BME280;43499;52.366;12.912;2023-01-28T02:28:51;102403.50;;;-1.26;92.79
57668;BME280;43499;52.366;12.912;2023-01-28T02:30:21;102391.31;;;-1.38;92.38
57668;BME280;43499;52.366;12.912;2023-01-28T02:32:53;102391.53;;;-1.37;92.04
57668;BME280;43499;52.366;12.912;2023-01-28T02:34:25;102427.91;;;-1.18;92.29
57668;BME280;43499;52.366;12.912;2023-01-28T02:37:00;102445.78;;;-0.97;92.76
57668;BME280;43499;52.366;12.912;2023-01-28T02:38:32;102406.81;;;-1.27;93.13
57668;BME280;43499;52.366;12.912;2023-01-28T02:39:50;102410.53;;;-1.19;92.95
57668;BME280;43499;52.366;12.912;2023-01-28T02:41:22;102440.38;;;-1.16;92.94
57668;BME280;43499;52.366;12.912;2023-01-28T02:42:31;102465.72;;;-1.02;92.96
57668;BME280;43499;52.366;12.912;2023-01-28T02:43:44;102387.75;;;-1.45;93.35
57668;BME280;43499;52.366;12.912;2023-01-28T02:44:46;102407.72;;;-1.27;92.97
57668;BME280;43499;52.366;12.912;2023-01-28T02:45:53;102446.47;;;-1.10;93.08
57668;BME280;43499;52.366;12.912;2023-01-28T02:47:16;102425.31;;;-1.18;93.07
57668;BME280;43499;52.366;12.912;2023-01-28T02:48:41;102368.50;;;-1.52;93.10
57668;BME280;43499;52.366;12.912;2023-01-28T02:49:52;102371.56;;;-1.49;93.32
57668;BME280;43499;52.366;12.912;2023-01-28T02:51:10;102393.13;;;-1.43;93.18
57668;BME280;43499;52.366;12.912;2023-01-28T02:52:28;102449.50;;;-1.12;92.71
57668;BME280;43499;52.366;12.912;2023-01-28T02:53:57;102416.16;;;-1.33;92.60
57668;BME280;43499;52.366;12.912;2023-01-28T02:57:08;102467.34;;;-0.97;93.20
57668;BME280;43499;52.366;12.912;2023-01-28T02:59:48;102435.91;;;-1.11;91.49
57668;BME280;43499;52.366;12.912;2023-01-28T03:01:09;102461.25;;;-0.97;91.66
57668;BME280;43499;52.366;12.912;2023-01-28T03:02:43;102462.88;;;-0.98;91.46
57668;BME280;43499;52.366;12.912;2023-01-28T03:04:03;102465.47;;;-0.98;91.34
57668;BME280;43499;52.366;12.912;2023-01-28T03:05:19;102456.31;;;-1.01;91.76
57668;BME280;43499;52.366;12.912;2023-01-28T03:06:36;102425.56;;;-1.28;91.91
57668;BME280;43499;52.366;12.912;2023-01-28T03:07:39;102407.50;;;-1.34;92.64
57668;BME280;43499;52.366;12.912;2023-01-28T03:08:53;102372.50;;;-1.49;92.21
57668;BME280;43499;52.366;12.912;2023-01-28T03:10:20;102390.53;;;-1.49;91.96
57668;BME280;43499;52.366;12.912;2023-01-28T03:11:29;102463.38;;;-1.00;91.57
57668;BME280;43499;52.366;12.912;2023-01-28T03:12:53;102401.16;;;-1.36;91.77
57668;BME280;43499;52.366;12.912;2023-01-28T03:14:18;102388.47;;;-1.40;91.30
57668;BME280;43499;52.366;12.912;2023-01-28T03:15:42;102384.47;;;-1.44;91.35
57668;BME280;43499;52.366;12.912;2023-01-28T03:17:07;102413.59;;;-1.28;91.79
57668;BME280;43499;52.366;12.912;2023-01-28T03:18:48;102388.00;;;-1.37;92.22
57668;BME280;43499;52.366;12.912;2023-01-28T03:20:14;102431.66;;;-1.16;92.13
57668;BME280;43499;52.366;12.912;2023-01-28T03:22:02;102418.06;;;-1.21;91.62
57668;BME280;43499;52.366;12.912;2023-01-28T03:23:30;102463.84;;;-0.97;92.07
57668;BME280;43499;52.366;12.912;2023-01-28T03:24:53;102419.22;;;-1.25;91.76
57668;BME280;43499;52.366;12.912;2023-01-28T03:26:20;102403.72;;;-1.36;91.70
57668;BME280;43499;52.366;12.912;2023-01-28T03:28:06;102446.47;;;-1.10;92.02
57668;BME280;43499;52.366;12.912;2023-01-28T03:29:34;102377.22;;;-1.46;92.78
57668;BME280;43499;52.366;12.912;2023-01-28T03:31:09;102406.53;;;-1.29;92.14
57668;BME280;43499;52.366;12.912;2023-01-28T03:32:37;102412.66;;;-1.34;92.10
57668;BME280;43499;52.366;12.912;2023-01-28T03:34:13;102430.03;;;-1.16;92.80
57668;BME280;43499;52.366;12.912;2023-01-28T03:35:34;102397.41;;;-1.32;92.37
57668;BME280;43499;52.366;12.912;2023-01-28T03:36:56;102467.38;;;-0.91;91.89
57668;BME280;43499;52.366;12.912;2023-01-28T03:38:20;102453.75;;;-0.96;91.89
57668;BME280;43499;52.366;12.912;2023-01-28T03:39:33;102469.72;;;-0.93;91.63
57668;BME280;43499;52.366;12.912;2023-01-28T03:41:02;102420.88;;;-1.14;91.44
57668;BME280;43499;52.366;12.912;2023-01-28T03:42:10;102457.72;;;-0.98;91.76
57668;BME280;43499;52.366;12.912;2023-01-28T03:43:34;102423.22;;;-1.21;92.45
57668;BME280;43499;52.366;12.912;2023-01-28T03:44:41;102379.81;;;-1.35;91.84
57668;BME280;43499;52.366;12.912;2023-01-28T03:46:01;102450.47;;;-0.95;92.71
57668;BME280;43499;52.366;12.912;2023-01-28T03:47:05;102419.25;;;-1.13;92.34
57668;BME280;43499;52.366;12.912;2023-01-28T03:48:11;102422.31;;;-1.16;92.12
57668;BME280;43499;52.366;12.912;2023-01-28T03:49:18;102399.06;;;-1.27;92.08
57668;BME280;43499;52.366;12.912;2023-01-28T03:50:19;102417.16;;;-1.16;91.89
57668;BME280;43499;52.366;12.912;2023-01-28T03:51:34;102359.16;;;-1.46;91.77
57668;BME280;43499;52.366;12.912;2023-01-28T03:52:52;102414.78;;;-1.14;92.03
57668;BME280;43499;52.366;12.912;2023-01-28T03:54:34;102409.59;;;-1.26;92.64
57668;BME280;43499;52.366;12.912;2023-01-28T03:55:39;102430.75;;;-1.11;92.30
57668;BME280;43499;52.366;12.912;2023-01-28T03:56:43;102366.41;;;-1.44;92.07
57668;BME280;43499;52.366;12.912;2023-01-28T03:57:47;102388.97;;;-1.31;91.57
57668;BME280;43499;52.366;12.912;2023-01-28T03:58:51;102371.09;;;-1.41;91.40
57668;BME280;43499;52.366;12.912;2023-01-28T04:00:21;102455.88;;;-0.93;91.68
57668;BME280;43499;52.366;12.912;2023-01-28T04:01:23;102453.06;;;-0.89;91.98
57668;BME280;43499;52.366;12.912;2023-01-28T04:02:25;102428.19;;;-1.05;91.97
57668;BME280;43499;52.366;12.912;2023-01-28T04:03:27;102458.22;;;-0.89;91.53
57668;BME280;43499;52.366;12.912;2023-01-28T04:04:32;102418.78;;;-1.05;92.13
57668;BME280;43499;52.366;12.912;2023-01-28T04:05:33;102449.28;;;-0.91;91.81
57668;BME280;43499;52.366;12.912;2023-01-28T04:06:35;102445.31;;;-0.89;91.92
57668;BME280;43499;52.366;12.912;2023-01-28T04:07:55;102449.28;;;-0.85;92.47
57668;BME280;43499;52.366;12.912;2023-01-28T04:09:24;102440.41;;;-0.93;92.19
57668;BME280;43499;52.366;12.912;2023-01-28T04:10:44;102459.63;;;-0.85;91.83
57668;BME280;43499;52.366;12.912;2023-01-28T04:12:04;102457.78;;;-0.86;91.77
57668;BME280;43499;52.366;12.912;2023-01-28T04:13:10;102443.69;;;-1.00;92.37
57668;BME280;43499;52.366;12.912;2023-01-28T04:14:12;102454.47;;;-0.85;92.19
57668;BME280;43499;52.366;12.912;2023-01-28T04:15:34;102462.47;;;-0.84;92.08
57668;BME280;43499;52.366;12.912;2023-01-28T04:16:36;102456.34;;;-0.84;92.38
57668;BME280;43499;52.366;12.912;2023-01-28T04:17:37;102451.19;;;-0.90;92.02
57668;BME280;43499;52.366;12.912;2023-01-28T04:18:39;102448.59;;;-0.90;91.97
57668;BME280;43499;52.366;12.912;2023-01-28T04:19:41;102424.44;;;-1.02;92.10
57668;BME280;43499;52.366;12.912;2023-01-28T04:20:50;102415.97;;;-1.12;92.27
57668;BME280;43499;52.366;12.912;2023-01-28T04:21:54;102419.25;;;-1.13;92.24
57668;BME280;43499;52.366;12.912;2023-01-28T04:23:06;102378.63;;;-1.31;93.22
57668;BME280;43499;52.366;12.912;2023-01-28T04:24:19;102459.63;;;-0.85;92.28
57668;BME280;43499;52.366;12.912;2023-01-28T04:25:22;102423.72;;;-1.06;92.41
57668;BME280;43499;52.366;12.912;2023-01-28T04:26:26;102424.91;;;-1.10;92.57
57668;BME280;43499;52.366;12.912;2023-01-28T04:27:42;102397.63;;;-1.25;92.55
57668;BME280;43499;52.366;12.912;2023-01-28T04:28:58;102415.47;;;-1.15;92.56
57668;BME280;43499;52.366;12.912;2023-01-28T04:30:09;102460.81;;;-0.89;92.75
57668;BME280;43499;52.366;12.912;2023-01-28T04:31:30;102461.28;;;-0.86;92.65
57668;BME280;43499;52.366;12.912;2023-01-28T04:33:08;102407.75;;;-1.21;92.83
57668;BME280;43499;52.366;12.912;2023-01-28T04:34:20;102380.03;;;-1.39;92.53
57668;BME280;43499;52.366;12.912;2023-01-28T04:35:40;102457.97;;;-1.02;92.16
57668;BME280;43499;52.366;12.912;2023-01-28T04:36:51;102405.63;;;-1.23;91.79
57668;BME280;43499;52.366;12.912;2023-01-28T04:38:14;102421.34;;;-1.16;91.53
57668;BME280;43499;52.366;12.912;2023-01-28T04:39:56;102463.84;;;-0.97;90.97
57668;BME280;43499;52.366;12.912;2023-01-28T04:41:44;102427.69;;;-1.14;91.49
57668;BME280;43499;52.366;12.912;2023-01-28T04:43:03;102378.63;;;-1.43;91.51
57668;BME280;43499;52.366;12.912;2023-01-28T04:44:44;102423.69;;;-1.18;91.53
57668;BME280;43499;52.366;12.912;2023-01-28T04:45:54;102435.66;;;-1.18;90.86
57668;BME280;43499;52.366;12.912;2023-01-28T04:47:07;102463.84;;;-1.03;91.14
57668;BME280;43499;52.366;12.912;2023-01-28T04:48:26;102442.97;;;-1.10;90.77
57668;BME280;43499;52.366;12.912;2023-01-28T04:49:54;102439.19;;;-1.12;90.72
57668;BME280;43499;52.366;12.912;2023-01-28T04:51:21;102419.25;;;-1.19;90.32
57668;BME280;43499;52.366;12.912;2023-01-28T04:52:39;102419.44;;;-1.23;90.54
57668;BME280;43499;52.366;12.912;2023-01-28T04:53:56;102448.81;;;-1.05;90.83
57668;BME280;43499;52.366;12.912;2023-01-28T04:55:01;102474.88;;;-0.87;90.56
57668;BME280;43499;52.366;12.912;2023-01-28T04:56:07;102487.56;;;-0.88;90.63
57668;BME280;43499;52.366;12.912;2023-01-28T04:57:10;102458.19;;;-1.00;90.57
57668;BME280;43499;52.366;12.912;2023-01-28T04:58:11;102383.09;;;-1.42;90.53
57668;BME280;43499;52.366;12.912;2023-01-28T04:59:17;102430.75;;;-1.17;90.79
57668;BME280;43499;52.366;12.912;2023-01-28T05:00:20;102382.59;;;-1.39;90.55
57668;BME280;43499;52.366;12.912;2023-01-28T05:01:21;102453.50;;;-1.09;90.22
57668;BME280;43499;52.366;12.912;2023-01-28T05:02:22;102479.34;;;-0.91;90.70
57668;BME280;43499;52.366;12.912;2023-01-28T05:03:23;102487.09;;;-0.91;90.93
57668;BME280;43499;52.366;12.912;2023-01-28T05:04:24;102474.41;;;-0.90;90.72
57668;BME280;43499;52.366;12.912;2023-01-28T05:05:26;102480.53;;;-0.89;90.85
57668;BME280;43499;52.366;12.912;2023-01-28T05:06:31;102480.75;;;-0.88;90.45
57668;BME280;43499;52.366;12.912;2023-01-28T05:07:36;102483.34;;;-0.88;90.47
57668;BME280;43499;52.366;12.912;2023-01-28T05:08:38;102471.59;;;-0.97;90.41
57668;BME280;43499;52.366;12.912;2023-01-28T05:09:39;102484.53;;;-0.86;89.56
57668;BME280;43499;52.366;12.912;2023-01-28T05:10:40;102480.28;;;-0.91;90.27
57668;BME280;43499;52.366;12.912;2023-01-28T05:11:41;102474.66;;;-0.94;89.59
57668;BME280;43499;52.366;12.912;2023-01-28T05:12:43;102485.69;;;-0.89;89.57
57668;BME280;43499;52.366;12.912;2023-01-28T05:13:45;102491.06;;;-0.88;89.56
57668;BME280;43499;52.366;12.912;2023-01-28T05:14:47;102488.50;;;-0.94;90.13
57668;BME280;43499;52.366;12.912;2023-01-28T05:15:52;102475.34;;;-1.01;90.10
57668;BME280;43499;52.366;12.912;2023-01-28T05:16:55;102486.88;;;-0.93;90.62
57668;BME280;43499;52.366;12.912;2023-01-28T05:17:56;102484.28;;;-0.99;90.81
57668;BME280;43499;52.366;12.912;2023-01-28T05:18:58;102510.13;;;-0.87;90.54
57668;BME280;43499;52.366;12.912;2023-01-28T05:20:07;102511.25;;;-0.85;89.92
57668;BME280;43499;52.366;12.912;2023-01-28T05:21:08;102483.81;;;-0.96;90.30
57668;BME280;43499;52.366;12.912;2023-01-28T05:22:11;102504.97;;;-0.82;90.44
57668;BME280;43499;52.366;12.912;2023-01-28T05:23:18;102491.06;;;-0.88;90.29
57668;BME280;43499;52.366;12.912;2023-01-28T05:24:28;102489.19;;;-0.89;89.97
57668;BME280;43499;52.366;12.912;2023-01-28T05:25:29;102471.09;;;-1.00;89.96
57668;BME280;43499;52.366;12.912;2023-01-28T05:26:31;102499.31;;;-0.85;90.71
57668;BME280;43499;52.366;12.912;2023-01-28T05:27:32;102487.09;;;-0.86;90.43
57668;BME280;43499;52.366;12.912;2023-01-28T05:28:34;102472.28;;;-0.98;90.43
57668;BME280;43499;52.366;12.912;2023-01-28T05:29:35;102487.56;;;-0.88;90.63
57668;BME280;43499;52.366;12.912;2023-01-28T05:30:37;102494.84;;;-0.86;90.58
57668;BME280;43499;52.366;12.912;2023-01-28T05:31:41;102498.84;;;-0.82;91.07
57668;BME280;43499;52.366;12.912;2023-01-28T05:32:42;102497.91;;;-0.83;91.07
57668;BME280;43499;52.366;12.912;2023-01-28T05:33:43;102481.94;;;-0.91;91.39
57668;BME280;43499;52.366;12.912;2023-01-28T05:34:46;102485.44;;;-0.91;90.91
57668;BME280;43499;52.366;12.912;2023-01-28T05:35:56;102485.41;;;-0.97;91.13
57668;BME280;43499;52.366;12.912;2023-01-28T05:37:00;102472.06;;;-1.00;90.92
57668;BME280;43499;52.366;12.912;2023-01-28T05:38:11;102406.78;;;-1.33;90.70
57668;BME280;43499;52.366;12.912;2023-01-28T05:39:12;102444.81;;;-1.09;91.01
57668;BME280;43499;52.366;12.912;2023-01-28T05:40:19;102408.41;;;-1.33;90.65
57668;BME280;43499;52.366;12.912;2023-01-28T05:41:23;102431.19;;;-1.19;90.47
57668;BME280;43499;52.366;12.912;2023-01-28T05:42:30;102423.69;;;-1.23;90.20
57668;BME280;43499;52.366;12.912;2023-01-28T05:43:45;102452.53;;;-1.09;90.19
57668;BME280;43499;52.366;12.912;2023-01-28T05:44:56;102482.84;;;-0.91;90.53
57668;BME280;43499;52.366;12.912;2023-01-28T05:46:37;102450.22;;;-1.07;90.50
57668;BME280;43499;52.366;12.912;2023-01-28T05:47:48;102461.03;;;-1.04;91.12
57668;BME280;43499;52.366;12.912;2023-01-28T05:49:10;102462.66;;;-0.99;90.68
57668;BME280;43499;52.366;12.912;2023-01-28T05:50:32;102471.81;;;-0.90;91.20
57668;BME280;43499;52.366;12.912;2023-01-28T05:51:59;102453.75;;;-1.01;91.15
57668;BME280;43499;52.366;12.912;2023-01-28T05:53:08;102424.63;;;-1.17;91.03
57668;BME280;43499;52.366;12.912;2023-01-28T05:54:11;102503.78;;;-0.78;91.01
57668;BME280;43499;52.366;12.912;2023-01-28T05:55:15;102477.25;;;-0.88;91.53
57668;BME280;43499;52.366;12.912;2023-01-28T05:56:17;102494.38;;;-0.78;91.51
57668;BME280;43499;52.366;12.912;2023-01-28T05:57:18;102400.66;;;-1.33;91.00
57668;BME280;43499;52.366;12.912;2023-01-28T05:58:23;102410.09;;;-1.28;90.47
57668;BME280;43499;52.366;12.912;2023-01-28T05:59:24;102479.56;;;-0.90;91.20
57668;BME280;43499;52.366;12.912;2023-01-28T06:00:31;102489.47;;;-0.82;91.53
57668;BME280;43499;52.366;12.912;2023-01-28T06:01:39;102480.06;;;-0.87;91.33
57668;BME280;43499;52.366;12.912;2023-01-28T06:02:44;102429.56;;;-1.13;91.54
57668;BME280;43499;52.366;12.912;2023-01-28T06:03:48;102425.59;;;-1.17;91.98
57668;BME280;43499;52.366;12.912;2023-01-28T06:04:53;102454.22;;;-0.98;91.21
57668;BME280;43499;52.366;12.912;2023-01-28T06:05:54;102429.09;;;-1.16;91.26
57668;BME280;43499;52.366;12.912;2023-01-28T06:07:00;102492.97;;;-0.75;91.80
57668;BME280;43499;52.366;12.912;2023-01-28T06:08:08;102461.25;;;-0.97;91.83
57668;BME280;43499;52.366;12.912;2023-01-28T06:09:10;102456.56;;;-1.05;91.65
57668;BME280;43499;52.366;12.912;2023-01-28T06:10:12;102407.94;;;-1.25;92.09
57668;BME280;43499;52.366;12.912;2023-01-28T06:11:14;102428.16;;;-1.11;91.86
57668;BME280;43499;52.366;12.912;2023-01-28T06:12:22;102447.66;;;-1.02;91.84
57668;BME280;43499;52.366;12.912;2023-01-28T06:13:41;102439.66;;;-1.09;91.62